Time;durP1;ratioP1;P1;durP2;ratioP2;P2;SDS_P1;SDS_P2;PMS_P1;PMS_P2;Temp;Humidity;BMP_temperature;BMP_pressure;BME280_temperature;BME280_humidity;BME280_pressure;Samples;Min_cycle;Max_cycle;Signal;HPM_P1;HPM_P2
2021/11/07 09:57:52;;;;;;;17.70;11.73;;;11.70;46.90;;;;;;6308404;22;20471;-90
2021/11/07 10:00:22;;;;;;;14.57;9.17;;;11.80;48.20;;;;;;6314521;22;20378;-90
2021/11/07 10:03:18;;;;;;;14.27;8.77;;;12.00;48.50;;;;;;6310020;22;20396;-89
2021/11/07 10:05:51;;;;;;;12.73;7.97;;;11.60;46.00;;;;;;6309122;22;20437;-89
2021/11/07 10:08:26;;;;;;;8.90;5.97;;;11.60;47.20;;;;;;6312091;22;20437;-89
2021/11/07 10:11:06;;;;;;;7.33;5.83;;;11.60;46.60;;;;;;6313433;22;20431;-89
2021/11/07 10:13:57;;;;;;;7.87;5.80;;;11.30;45.70;;;;;;6316840;22;20794;-89
2021/11/07 10:16:35;;;;;;;8.30;5.60;;;11.60;44.40;;;;;;6316465;22;20406;-89
2021/11/07 10:19:28;;;;;;;6.80;5.47;;;11.60;45.00;;;;;;6314885;22;20406;-89
2021/11/07 10:21:58;;;;;;;7.63;5.40;;;12.00;46.20;;;;;;6316274;22;20430;-89
2021/11/07 10:24:33;;;;;;;7.43;5.20;;;12.60;45.10;;;;;;6317206;22;20791;-90
2021/11/07 10:27:02;;;;;;;7.03;4.97;;;12.40;43.60;;;;;;6316985;22;20577;-89
2021/11/07 10:29:38;;;;;;;5.30;4.50;;;12.20;43.80;;;;;;6317914;22;20865;-90
2021/11/07 10:32:14;;;;;;;6.00;4.37;;;12.50;42.20;;;;;;6319968;22;20398;-89
2021/11/07 10:37:54;;;;;;;15.10;3.80;;;12.30;40.70;;;;;;6315960;22;20453;-89
2021/11/07 10:40:38;;;;;;;5.63;3.60;;;12.30;44.00;;;;;;6315822;22;20418;-90
2021/11/07 10:52:07;;;;;;;7.07;3.97;;;13.00;40.50;;;;;;6316508;22;20657;-89
2021/11/07 10:54:42;;;;;;;4.93;3.70;;;12.70;42.00;;;;;;6317173;22;20932;-89
2021/11/07 10:57:19;;;;;;;4.43;3.60;;;13.00;39.10;;;;;;6322376;22;20495;-89
2021/11/07 11:00:12;;;;;;;7.10;4.40;;;13.60;38.70;;;;;;6319968;22;20402;-90
2021/11/07 11:02:43;;;;;;;6.53;4.77;;;13.30;38.40;;;;;;6319615;22;20657;-91
2021/11/07 11:05:12;;;;;;;5.93;3.97;;;13.60;42.50;;;;;;6316355;22;20545;-90
2021/11/07 11:08:01;;;;;;;4.43;3.40;;;13.60;39.60;;;;;;6321749;22;20450;-89
2021/11/07 11:10:41;;;;;;;7.30;4.17;;;13.80;37.90;;;;;;6326294;22;20460;-90
2021/11/07 11:15:48;;;;;;;5.57;3.60;;;13.80;38.90;;;;;;6295562;22;20425;-89
2021/11/07 11:26:58;;;;;;;6.67;3.87;;;14.90;39.90;;;;;;6287619;22;20505;-89
2021/11/07 11:29:40;;;;;;;6.20;3.47;;;15.10;35.90;;;;;;6290914;22;20421;-90
2021/11/07 11:32:15;;;;;;;4.10;3.63;;;14.80;37.20;;;;;;6288365;22;20434;-90
2021/11/07 11:34:48;;;;;;;4.47;3.70;;;14.80;38.90;;;;;;6291032;22;20413;-91
2021/11/07 11:37:21;;;;;;;4.37;3.50;;;15.10;36.70;;;;;;6292634;22;20486;-90
2021/11/07 11:39:55;;;;;;;4.70;3.80;;;14.90;37.00;;;;;;6290649;22;20404;-91
2021/11/07 11:42:27;;;;;;;3.40;3.23;;;14.90;38.40;;;;;;6294087;22;20411;-91
2021/11/07 11:44:57;;;;;;;4.53;3.80;;;15.20;37.40;;;;;;6290848;22;20403;-90
2021/11/07 11:47:50;;;;;;;7.60;5.67;;;15.60;36.00;;;;;;6290520;22;20798;-90
2021/11/07 11:50:31;;;;;;;5.53;4.33;;;15.00;35.60;;;;;;6288427;22;20405;-91
2021/11/07 11:53:12;;;;;;;4.80;3.83;;;14.30;36.70;;;;;;6286508;22;20418;-90
2021/11/07 11:55:47;;;;;;;4.83;3.70;;;13.90;38.30;;;;;;6287250;22;20455;-90
2021/11/07 11:58:25;;;;;;;3.80;3.20;;;14.60;38.80;;;;;;6290173;22;20493;-91
2021/11/07 12:00:59;;;;;;;5.67;3.50;;;15.30;38.30;;;;;;6284482;22;20472;-90
2021/11/07 12:03:47;;;;;;;4.10;3.40;;;15.80;35.00;;;;;;6286332;22;20392;-90
2021/11/07 12:06:29;;;;;;;3.80;3.20;;;16.20;39.10;;;;;;6287397;22;20747;-90
2021/11/07 12:09:24;;;;;;;4.50;3.50;;;15.70;38.20;;;;;;6287210;22;20720;-90
2021/11/07 12:11:57;;;;;;;8.83;3.40;;;15.30;35.10;;;;;;6296206;22;20391;-91
2021/11/07 12:14:31;;;;;;;3.43;3.10;;;15.40;37.00;;;;;;6299304;22;20432;-90
2021/11/07 12:17:01;;;;;;;3.97;3.00;;;15.70;35.80;;;;;;6294934;22;20415;-91
2021/11/07 12:19:35;;;;;;;3.87;3.03;;;15.50;35.70;;;;;;6299716;22;20414;-90
2021/11/07 12:22:10;;;;;;;3.50;3.33;;;15.50;35.00;;;;;;6295478;22;20471;-90
2021/11/07 12:24:54;;;;;;;7.20;2.87;;;15.10;35.50;;;;;;6284379;22;20586;-90
2021/11/07 12:27:27;;;;;;;3.50;2.83;;;15.20;37.90;;;;;;6283285;22;20459;-90
2021/11/07 12:29:56;;;;;;;3.90;3.13;;;15.40;35.80;;;;;;6282681;22;20415;-90
2021/11/07 12:32:33;;;;;;;4.73;3.50;;;15.80;35.30;;;;;;6283541;22;20494;-91
2021/11/07 12:35:08;;;;;;;3.30;2.70;;;16.30;35.60;;;;;;6286367;22;20375;-91
2021/11/07 12:40:51;;;;;;;3.43;2.40;;;16.50;32.80;;;;;;6281645;22;20421;-90
2021/11/07 12:43:25;;;;;;;2.40;2.20;;;16.50;34.50;;;;;;6281142;22;20421;-91
2021/11/07 12:45:58;;;;;;;3.43;2.47;;;16.30;35.00;;;;;;6281554;22;20391;-91
2021/11/07 12:48:47;;;;;;;2.27;2.13;;;16.10;37.80;;;;;;6281415;22;20485;-90
2021/11/07 12:51:17;;;;;;;2.50;2.30;;;15.90;31.80;;;;;;6281095;22;20383;-91
2021/11/07 12:54:07;;;;;;;3.40;2.20;;;15.90;36.90;;;;;;6279928;22;20493;-90
2021/11/07 12:56:44;;;;;;;4.53;2.30;;;15.90;34.50;;;;;;6282030;22;20403;-90
2021/11/07 12:59:13;;;;;;;2.77;2.63;;;16.00;31.90;;;;;;6280574;22;20424;-91
2021/11/07 13:02:08;;;;;;;3.03;2.57;;;15.60;36.60;;;;;;6283579;22;20406;-90
2021/11/07 13:04:48;;;;;;;3.70;2.40;;;15.80;33.00;;;;;;6283222;22;20411;-90
2021/11/07 13:07:22;;;;;;;3.37;2.50;;;15.60;34.00;;;;;;6283596;22;20446;-90
2021/11/07 13:09:57;;;;;;;2.40;2.20;;;15.30;36.40;;;;;;6286025;22;20668;-90
2021/11/07 13:12:28;;;;;;;6.63;2.57;;;15.50;35.90;;;;;;6287830;22;20457;-91
2021/11/07 13:15:14;;;;;;;3.07;2.37;;;15.50;36.10;;;;;;6285594;22;20410;-90
2021/11/07 13:20:59;;;;;;;2.50;2.30;;;15.30;40.30;;;;;;6286681;22;20394;-91
2021/11/07 13:36:50;;;;;;;4.73;3.00;;;15.70;36.30;;;;;;5670957;22;15106780;-90
2021/11/07 13:39:25;;;;;;;4.40;3.10;;;16.30;36.70;;;;;;6325196;22;20255;-90
2021/11/07 13:41:55;;;;;;;3.40;2.70;;;15.70;37.70;;;;;;6325701;22;20894;-89
2021/11/07 13:44:25;;;;;;;6.83;2.53;;;15.50;40.40;;;;;;6325543;22;20448;-90
2021/11/07 13:47:01;;;;;;;3.90;2.50;;;15.60;39.50;;;;;;6327002;22;20476;-91
2021/11/07 13:49:29;;;;;;;4.83;2.70;;;15.80;39.60;;;;;;6327373;22;20408;-90
2021/11/07 13:52:01;;;;;;;3.60;2.30;;;15.90;40.80;;;;;;6325472;22;20393;-90
2021/11/07 13:54:29;;;;;;;2.90;2.70;;;16.00;39.80;;;;;;6326555;22;20397;-90
2021/11/07 13:56:57;;;;;;;3.50;3.00;;;16.10;38.70;;;;;;6327011;22;20479;-90
2021/11/07 13:59:35;;;;;;;5.33;3.13;;;15.90;39.10;;;;;;6330363;22;20390;-90
2021/11/07 14:02:13;;;;;;;3.60;2.70;;;15.80;39.40;;;;;;6341212;22;20388;-92
2021/11/07 14:04:42;;;;;;;8.93;4.33;;;15.60;39.60;;;;;;6342294;22;20424;-93
2021/11/07 14:07:21;;;;;;;4.93;3.83;;;16.10;40.00;;;;;;6340893;22;20463;-94
2021/11/07 14:10:10;;;;;;;4.90;2.60;;;16.20;38.10;;;;;;6341706;22;20406;-91
2021/11/07 14:12:42;;;;;;;3.90;2.50;;;15.90;38.50;;;;;;6341703;22;20405;-91
2021/11/07 14:15:48;;;;;;;4.03;3.10;;;15.80;39.50;;;;;;6342083;22;20438;-95
2021/11/07 14:18:22;;;;;;;3.50;2.70;;;16.00;40.60;;;;;;6342129;22;20410;-91
2021/11/07 14:20:51;;;;;;;5.07;2.90;;;15.90;40.70;;;;;;6341111;22;20428;-92
2021/11/07 14:23:29;;;;;;;4.80;2.93;;;15.90;41.30;;;;;;6340931;22;20401;-91
2021/11/07 14:26:04;;;;;;;5.40;3.07;;;15.90;39.90;;;;;;6341410;22;20449;-91
2021/11/07 14:28:37;;;;;;;3.23;2.70;;;15.40;42.50;;;;;;6340729;22;20428;-92
2021/11/07 14:31:15;;;;;;;3.23;2.70;;;15.40;44.00;;;;;;6341280;22;20400;-92
2021/11/07 14:33:49;;;;;;;10.33;3.07;;;15.60;42.70;;;;;;6341247;22;20492;-92
2021/11/07 14:36:33;;;;;;;3.90;2.33;;;15.60;41.90;;;;;;6337036;22;20464;-92
2021/11/07 14:39:10;;;;;;;4.80;2.63;;;15.60;44.60;;;;;;6333162;22;20421;-91
2021/11/07 14:41:43;;;;;;;4.60;3.00;;;15.20;43.10;;;;;;6332809;22;20503;-90
2021/11/07 14:44:29;;;;;;;3.00;2.70;;;14.80;44.50;;;;;;6332436;22;20407;-90
2021/11/07 14:47:14;;;;;;;5.43;2.60;;;14.20;46.20;;;;;;6333344;22;20431;-91
2021/11/07 14:49:59;;;;;;;4.00;2.40;;;14.20;46.40;;;;;;6333750;22;20419;-92
2021/11/07 14:55:24;;;;;;;4.10;3.00;;;14.60;44.30;;;;;;6330849;22;20490;-91
2021/11/07 14:58:21;;;;;;;5.37;3.40;;;14.50;45.50;;;;;;6332718;22;20431;-91
2021/11/07 15:00:56;;;;;;;3.37;3.10;;;14.20;44.80;;;;;;6334142;22;20393;-94
2021/11/07 15:03:27;;;;;;;4.30;3.00;;;14.40;46.30;;;;;;6334401;22;20395;-94
2021/11/07 15:06:18;;;;;;;3.93;2.93;;;14.40;47.90;;;;;;6333209;22;20443;-91
2021/11/07 15:08:53;;;;;;;6.67;3.03;;;14.10;44.30;;;;;;6332531;22;20406;-92
2021/11/07 15:11:43;;;;;;;4.70;3.03;;;14.00;47.50;;;;;;6331309;22;20467;-91
2021/11/07 15:14:40;;;;;;;5.33;2.50;;;14.10;47.10;;;;;;6331589;22;20398;-92
2021/11/07 15:17:22;;;;;;;3.77;2.93;;;13.90;47.30;;;;;;6333149;22;20467;-91
2021/11/07 15:19:57;;;;;;;5.23;3.63;;;14.10;46.10;;;;;;6333397;22;20414;-91
2021/11/07 15:22:41;;;;;;;6.30;4.30;;;14.70;46.80;;;;;;6333226;22;20402;-90
2021/11/07 15:25:09;;;;;;;7.07;3.17;;;15.00;44.10;;;;;;6332908;22;20432;-92
2021/11/07 15:27:38;;;;;;;9.50;4.33;;;14.80;46.90;;;;;;6332781;22;20515;-91
2021/11/07 15:30:15;;;;;;;6.53;4.37;;;15.10;46.10;;;;;;6333996;22;20450;-91
2021/11/07 15:32:43;;;;;;;6.00;4.33;;;15.00;42.90;;;;;;6331941;22;20394;-90
2021/11/07 15:35:20;;;;;;;4.23;3.30;;;14.60;44.90;;;;;;6330974;22;20414;-91
2021/11/07 15:37:51;;;;;;;4.77;3.60;;;14.30;45.80;;;;;;6330459;22;20426;-90
2021/11/07 15:40:29;;;;;;;3.33;3.00;;;14.30;45.50;;;;;;6331100;22;20441;-91
2021/11/07 15:42:59;;;;;;;5.87;4.03;;;14.20;46.40;;;;;;6331152;22;20437;-91
2021/11/07 15:45:27;;;;;;;4.37;3.20;;;14.20;44.60;;;;;;6325969;22;20444;-90
2021/11/07 15:47:56;;;;;;;5.43;3.83;;;14.40;45.50;;;;;;6329644;22;20789;-92
2021/11/07 15:50:30;;;;;;;4.03;3.53;;;14.50;43.40;;;;;;6331546;22;20404;-91
2021/11/07 15:53:04;;;;;;;6.77;3.67;;;14.50;43.50;;;;;;6331630;22;20492;-91
2021/11/07 15:55:37;;;;;;;4.90;3.63;;;14.40;43.00;;;;;;6331545;22;20447;-93
2021/11/07 15:58:29;;;;;;;4.60;3.83;;;14.30;41.20;;;;;;6331447;22;20431;-92
2021/11/07 16:01:04;;;;;;;9.47;3.70;;;14.20;46.40;;;;;;6331759;22;20382;-91
2021/11/07 16:03:38;;;;;;;4.23;3.03;;;14.00;43.80;;;;;;6329870;22;20394;-92
2021/11/07 16:09:08;;;;;;;6.40;3.40;;;13.20;46.20;;;;;;6308140;22;20449;-92
2021/11/07 16:11:39;;;;;;;3.57;3.30;;;13.50;46.60;;;;;;6331672;22;20402;-93
2021/11/07 16:14:18;;;;;;;6.10;3.40;;;13.80;46.40;;;;;;6330412;22;20411;-93
2021/11/07 16:16:48;;;;;;;3.97;3.20;;;14.10;44.40;;;;;;6332705;22;20433;-92
2021/11/07 16:19:18;;;;;;;4.37;3.10;;;13.90;43.20;;;;;;6332306;22;20392;-92
2021/11/07 16:21:48;;;;;;;3.60;3.37;;;14.10;45.60;;;;;;6332129;22;20421;-93
2021/11/07 16:24:17;;;;;;;3.43;3.33;;;14.00;43.10;;;;;;6333577;22;20393;-92
2021/11/07 16:26:46;;;;;;;2.73;2.60;;;14.20;45.90;;;;;;6332338;22;20491;-93
2021/11/07 16:29:22;;;;;;;6.03;3.20;;;14.10;47.20;;;;;;6333040;22;20428;-92
2021/11/07 16:31:57;;;;;;;3.70;3.13;;;13.70;43.20;;;;;;6333549;22;20401;-92
2021/11/07 16:34:25;;;;;;;3.70;3.10;;;13.60;44.80;;;;;;6332102;22;20398;-92
2021/11/07 16:36:53;;;;;;;3.80;3.40;;;13.80;43.40;;;;;;6333228;22;20493;-92
2021/11/07 16:39:24;;;;;;;5.30;3.80;;;13.60;44.80;;;;;;6332829;22;20399;-91
2021/11/07 16:41:53;;;;;;;5.87;3.30;;;13.80;44.80;;;;;;6332094;22;20401;-91
2021/11/07 17:56:43;;;;;;;7.80;4.87;;;13.40;46.80;;;;;;6222290;23;20899;-87
2021/11/07 17:59:11;;;;;;;13.23;5.73;;;13.30;46.10;;;;;;6220651;23;20416;-86
2021/11/07 18:01:41;;;;;;;7.03;5.30;;;13.20;46.80;;;;;;6221503;23;20597;-87
2021/11/07 18:04:08;;;;;;;7.13;4.70;;;13.80;46.00;;;;;;6222407;23;20398;-87
2021/11/07 18:06:40;;;;;;;7.13;4.97;;;13.70;48.60;;;;;;6221155;23;20499;-88
2021/11/07 18:09:12;;;;;;;5.90;4.53;;;14.30;46.50;;;;;;6221400;23;20401;-88
2021/11/07 18:11:42;;;;;;;5.90;4.77;;;14.40;45.40;;;;;;6222733;23;20402;-88
2021/11/07 18:14:12;;;;;;;11.97;8.03;;;14.30;44.40;;;;;;6223570;23;20390;-88
2021/11/07 18:16:40;;;;;;;7.33;5.10;;;14.20;45.50;;;;;;6225465;23;20424;-88
2021/11/07 18:19:07;;;;;;;6.83;4.73;;;14.20;45.00;;;;;;6224209;23;20492;-88
2021/11/07 18:21:36;;;;;;;7.70;5.70;;;14.00;45.00;;;;;;6225576;23;20424;-88
2021/11/07 18:24:12;;;;;;;7.27;4.23;;;14.20;45.90;;;;;;6224339;23;20412;-87
2021/11/07 18:26:46;;;;;;;14.37;8.90;;;14.50;46.70;;;;;;6225606;23;20471;-87
2021/11/07 18:29:15;;;;;;;21.23;10.13;;;14.60;45.30;;;;;;6226871;23;20389;-86
2021/11/07 18:31:43;;;;;;;14.80;7.90;;;14.50;46.00;;;;;;6228484;23;20444;-87
2021/11/07 18:34:11;;;;;;;9.43;5.70;;;14.70;46.80;;;;;;6229408;23;20459;-87
2021/11/07 18:36:41;;;;;;;18.50;9.23;;;14.90;45.20;;;;;;6242407;22;20451;-90
2021/11/07 18:39:09;;;;;;;13.37;7.93;;;15.00;43.60;;;;;;6242714;22;20472;-91
2021/11/07 18:41:36;;;;;;;12.80;7.60;;;15.00;47.20;;;;;;6242223;22;20404;-90
2021/11/07 18:44:03;;;;;;;11.80;6.63;;;15.20;46.40;;;;;;6242994;22;20390;-87
2021/11/07 18:46:31;;;;;;;12.10;7.40;;;14.90;45.90;;;;;;6241627;22;20424;-88
2021/11/07 18:48:58;;;;;;;15.33;7.53;;;14.70;42.60;;;;;;6242070;23;20405;-87
2021/11/07 18:51:27;;;;;;;8.67;5.87;;;14.50;45.60;;;;;;6241255;23;20393;-87
2021/11/07 18:53:56;;;;;;;9.73;4.93;;;14.10;44.60;;;;;;6239847;23;20423;-87
2021/11/07 18:56:24;;;;;;;7.57;5.00;;;13.80;48.40;;;;;;6237287;23;20466;-88
2021/11/07 18:58:51;;;;;;;10.70;4.77;;;13.40;47.10;;;;;;6229218;23;20413;-87
2021/11/07 19:01:18;;;;;;;8.37;5.30;;;13.20;47.10;;;;;;6223058;23;20409;-87
2021/11/07 19:03:49;;;;;;;12.53;5.40;;;13.20;47.20;;;;;;6222936;23;20393;-88
2021/11/07 19:06:17;;;;;;;8.00;5.53;;;13.20;49.80;;;;;;6222319;23;20463;-88
2021/11/07 19:08:44;;;;;;;6.70;4.37;;;13.10;48.10;;;;;;6221949;23;20432;-87
2021/11/07 19:11:15;;;;;;;8.73;5.50;;;13.50;51.90;;;;;;6220825;23;20525;-87
2021/11/07 19:13:43;;;;;;;5.90;5.00;;;13.60;47.00;;;;;;6221615;23;20397;-88
2021/11/07 19:16:10;;;;;;;7.33;4.93;;;13.50;48.60;;;;;;6223709;23;20786;-88
2021/11/07 19:18:37;;;;;;;6.77;4.90;;;13.40;49.50;;;;;;6224249;23;20417;-87
2021/11/07 19:21:06;;;;;;;7.70;5.50;;;13.40;48.00;;;;;;6223355;23;20432;-87
2021/11/07 19:23:33;;;;;;;10.53;6.10;;;13.30;51.90;;;;;;6223525;23;20405;-87
2021/11/07 19:26:00;;;;;;;8.90;5.70;;;13.70;49.80;;;;;;6223237;23;20506;-88
2021/11/07 19:28:28;;;;;;;7.07;4.73;;;13.80;46.60;;;;;;6223349;23;20522;-88
2021/11/07 19:30:55;;;;;;;5.20;4.37;;;14.00;51.60;;;;;;6223632;23;20479;-89
2021/11/07 19:33:22;;;;;;;12.17;5.40;;;13.90;50.60;;;;;;6224764;23;20417;-88
2021/11/07 19:35:49;;;;;;;6.90;5.73;;;14.10;50.40;;;;;;6224997;23;20448;-88
2021/11/07 19:38:18;;;;;;;6.80;5.33;;;13.90;47.40;;;;;;6225037;23;20507;-88
2021/11/07 19:40:48;;;;;;;8.93;5.30;;;14.00;50.40;;;;;;6225088;23;20401;-88
2021/11/07 19:43:15;;;;;;;6.77;4.90;;;14.30;49.60;;;;;;6224011;23;20491;-88
2021/11/07 19:45:48;;;;;;;5.50;5.00;;;14.70;49.80;;;;;;6234060;23;20421;-88
2021/11/07 19:48:19;;;;;;;7.60;5.53;;;15.10;48.40;;;;;;6237070;23;20440;-86
2021/11/07 19:50:51;;;;;;;6.83;4.63;;;15.10;47.20;;;;;;6237888;23;20405;-88
2021/11/07 19:53:19;;;;;;;6.97;4.93;;;14.80;46.10;;;;;;6234327;23;20477;-88
2021/11/07 19:55:47;;;;;;;6.50;4.93;;;15.00;47.10;;;;;;6235784;23;20800;-88
2021/11/07 19:58:14;;;;;;;5.80;4.33;;;15.00;46.60;;;;;;6231247;23;20433;-87
2021/11/07 20:09:17;;;;;;;6.00;4.90;;;14.10;46.40;;;;;;6164377;23;20384;-87
2021/11/07 20:11:48;;;;;;;8.20;5.47;;;13.60;48.90;;;;;;6230966;23;20408;-89
2021/11/07 20:14:16;;;;;;;7.97;5.30;;;13.50;49.20;;;;;;6228084;23;20488;-87
2021/11/07 20:16:43;;;;;;;7.13;5.90;;;14.10;48.30;;;;;;6230659;23;20432;-87
2021/11/07 20:19:13;;;;;;;8.87;5.37;;;13.60;48.70;;;;;;6230445;23;20415;-90
2021/11/07 20:21:40;;;;;;;7.67;5.20;;;13.50;49.10;;;;;;6228086;23;20425;-88
2021/11/07 20:24:10;;;;;;;5.63;4.47;;;13.40;51.20;;;;;;6229926;23;20892;-88
2021/11/07 20:26:37;;;;;;;6.60;5.10;;;13.60;51.90;;;;;;6228955;23;20637;-87
2021/11/07 20:29:09;;;;;;;7.27;5.53;;;13.30;51.30;;;;;;6227685;23;20420;-88
2021/11/07 20:31:36;;;;;;;7.40;5.53;;;13.20;51.90;;;;;;6229387;23;20400;-87
2021/11/07 20:34:09;;;;;;;10.10;5.27;;;13.30;51.70;;;;;;6233621;23;20887;-88
2021/11/07 20:36:39;;;;;;;9.43;5.37;;;13.20;50.20;;;;;;6229634;23;20472;-88
2021/11/07 20:39:06;;;;;;;9.00;5.87;;;13.20;52.00;;;;;;6230961;23;20468;-88
2021/11/07 20:41:40;;;;;;;8.57;5.90;;;13.20;51.60;;;;;;6233529;23;20420;-87
2021/11/07 20:44:08;;;;;;;6.80;5.07;;;13.40;51.90;;;;;;6232278;23;20409;-89
2021/11/07 20:49:32;;;;;;;7.63;5.50;;;13.80;51.80;;;;;;6234923;23;20389;-92
2021/11/07 20:52:01;;;;;;;6.10;4.50;;;13.10;52.40;;;;;;6235187;23;20409;-92
2021/11/07 20:54:36;;;;;;;7.43;5.50;;;13.00;54.00;;;;;;6237313;23;20955;-91
2021/11/07 20:57:15;;;;;;;8.43;6.13;;;13.30;52.50;;;;;;6234542;23;20459;-90
2021/11/07 20:59:49;;;;;;;9.60;6.43;;;13.40;52.60;;;;;;6232459;23;20404;-90
2021/11/07 21:02:21;;;;;;;8.10;5.80;;;13.40;52.60;;;;;;6226594;23;20500;-91
2021/11/07 21:04:50;;;;;;;10.80;7.40;;;13.50;53.00;;;;;;6227134;23;20441;-90
2021/11/07 21:07:21;;;;;;;17.03;6.57;;;13.60;51.80;;;;;;6226679;23;20471;-90
2021/11/07 21:09:56;;;;;;;11.13;6.50;;;13.70;50.90;;;;;;6229547;23;20408;-89
2021/11/07 21:12:28;;;;;;;6.63;4.73;;;14.10;53.30;;;;;;6228424;23;20408;-91
2021/11/07 21:15:05;;;;;;;7.47;5.37;;;14.60;52.10;;;;;;6227982;23;20427;-90
2021/11/07 21:17:52;;;;;;;5.07;4.53;;;14.80;50.50;;;;;;6226213;23;20527;-90
2021/11/07 21:26:10;;;;;;;5.93;4.57;;;15.40;50.70;;;;;;6219726;23;20853;-91
2021/11/07 21:28:39;;;;;;;8.50;6.33;;;15.50;49.00;;;;;;6230044;23;20438;-91
2021/11/07 21:31:09;;;;;;;7.67;5.13;;;15.30;48.80;;;;;;6230930;23;20424;-91
2021/11/07 21:33:49;;;;;;;7.03;4.67;;;15.20;48.10;;;;;;6231402;23;20424;-91
2021/11/07 21:36:27;;;;;;;6.13;4.83;;;14.60;49.00;;;;;;6231788;23;20455;-90
2021/11/07 21:39:00;;;;;;;7.87;6.10;;;15.10;52.50;;;;;;6226856;23;20474;-91
2021/11/07 21:41:30;;;;;;;4.73;4.17;;;15.40;49.40;;;;;;6225009;23;20482;-90
2021/11/07 21:44:01;;;;;;;4.80;4.13;;;15.20;49.90;;;;;;6232186;23;20406;-90
2021/11/07 21:46:30;;;;;;;7.10;4.17;;;15.50;51.50;;;;;;6235681;23;20506;-90
2021/11/07 21:48:57;;;;;;;5.00;4.40;;;15.50;46.80;;;;;;6236266;23;20415;-91
2021/11/07 21:51:24;;;;;;;7.50;5.00;;;15.20;48.10;;;;;;6233670;23;20423;-90
2021/11/07 21:53:52;;;;;;;6.10;5.10;;;15.00;50.00;;;;;;6235563;23;20408;-90
2021/11/07 21:56:21;;;;;;;6.40;4.90;;;15.00;51.60;;;;;;6235500;23;20417;-90
2021/11/07 21:58:48;;;;;;;10.47;6.50;;;15.30;49.50;;;;;;6234383;23;20414;-91
2021/11/07 22:01:17;;;;;;;6.70;4.63;;;15.10;47.70;;;;;;6234477;23;20418;-91
2021/11/07 22:03:44;;;;;;;4.80;4.07;;;15.30;50.70;;;;;;6230438;23;20489;-90
2021/11/07 22:06:15;;;;;;;6.77;4.33;;;15.40;50.50;;;;;;6232858;23;20416;-90
2021/11/07 22:08:46;;;;;;;6.07;4.80;;;15.10;48.50;;;;;;6230809;23;20432;-90
2021/11/07 22:11:15;;;;;;;5.67;4.10;;;14.70;47.70;;;;;;6231867;23;20427;-90
2021/11/07 22:13:42;;;;;;;5.73;5.00;;;14.80;51.80;;;;;;6233766;23;20420;-90
2021/11/07 22:16:20;;;;;;;8.73;5.60;;;15.20;49.60;;;;;;6233428;23;20437;-91
2021/11/07 22:18:54;;;;;;;11.00;6.40;;;14.50;48.20;;;;;;6228371;23;20401;-89
2021/11/07 22:21:26;;;;;;;6.37;4.77;;;13.50;52.00;;;;;;6226285;23;20422;-89
2021/11/07 22:23:56;;;;;;;5.70;3.77;;;13.40;52.60;;;;;;6224825;23;20999;-89
2021/11/07 22:26:26;;;;;;;7.40;5.20;;;13.50;53.30;;;;;;6233840;22;20404;-89
2021/11/07 22:29:00;;;;;;;8.73;4.40;;;13.60;52.80;;;;;;6231248;23;20517;-89
2021/11/07 22:31:30;;;;;;;5.27;4.47;;;13.70;52.90;;;;;;6227375;23;20397;-89
2021/11/07 22:34:01;;;;;;;6.23;4.47;;;13.30;52.50;;;;;;6228842;23;20405;-91
2021/11/07 22:36:32;;;;;;;5.77;4.37;;;13.10;55.60;;;;;;6234483;23;20408;-89
2021/11/07 22:39:00;;;;;;;7.23;4.93;;;13.30;52.80;;;;;;6237887;23;20419;-90
2021/11/07 22:41:29;;;;;;;5.40;3.87;;;13.70;52.90;;;;;;6234523;23;20431;-90
2021/11/07 22:44:00;;;;;;;5.07;3.83;;;14.50;53.60;;;;;;6230832;23;20428;-90
2021/11/07 22:46:31;;;;;;;5.40;3.83;;;14.20;51.90;;;;;;6228033;23;20440;-89
2021/11/07 22:49:01;;;;;;;6.00;3.87;;;14.30;52.40;;;;;;6234594;23;20394;-90
2021/11/07 22:51:37;;;;;;;6.90;4.00;;;14.70;52.50;;;;;;6235922;23;20460;-89
2021/11/07 22:54:17;;;;;;;5.50;4.27;;;14.90;51.10;;;;;;6228839;23;20471;-90
2021/11/07 23:02:13;;;;;;;12.30;4.73;;;15.00;51.80;;;;;;6195590;23;20409;-90
2021/11/07 23:04:45;;;;;;;9.23;4.30;;;14.80;48.80;;;;;;6197406;23;20413;-90
2021/11/07 23:07:14;;;;;;;4.70;3.47;;;14.50;50.50;;;;;;6195324;23;20514;-90
2021/11/07 23:09:54;;;;;;;5.13;4.13;;;14.50;52.30;;;;;;6199140;23;20418;-89
2021/11/07 23:12:22;;;;;;;5.30;4.23;;;14.90;52.00;;;;;;6196083;23;20413;-90
2021/11/07 23:14:53;;;;;;;4.13;3.67;;;15.00;49.90;;;;;;6198193;23;20418;-90
2021/11/07 23:17:24;;;;;;;5.50;4.17;;;15.20;50.90;;;;;;6195667;23;20646;-90
2021/11/07 23:19:56;;;;;;;5.20;3.83;;;15.20;51.10;;;;;;6193415;23;20429;-89
2021/11/07 23:22:29;;;;;;;4.73;3.40;;;15.60;51.60;;;;;;6191765;23;20958;-89
2021/11/07 23:24:59;;;;;;;5.70;4.43;;;15.60;50.00;;;;;;6194253;23;20443;-89
2021/11/07 23:27:29;;;;;;;4.87;4.17;;;15.30;48.40;;;;;;6193557;23;20441;-90
2021/11/07 23:29:58;;;;;;;5.07;3.80;;;15.20;48.60;;;;;;6193858;23;20452;-89
2021/11/07 23:32:26;;;;;;;4.93;3.80;;;15.00;50.60;;;;;;6196194;23;20494;-90
2021/11/07 23:34:53;;;;;;;4.60;3.60;;;14.90;50.10;;;;;;6195405;23;20415;-89
2021/11/07 23:37:26;;;;;;;5.30;4.00;;;15.20;52.00;;;;;;6198272;23;20431;-90
2021/11/07 23:39:54;;;;;;;4.93;4.20;;;15.60;51.20;;;;;;6200359;23;20399;-89
2021/11/07 23:42:21;;;;;;;5.73;3.40;;;15.70;50.60;;;;;;6175015;23;20487;-88
2021/11/07 23:44:52;;;;;;;6.67;5.00;;;15.60;49.20;;;;;;6158761;23;20413;-88
2021/11/07 23:47:22;;;;;;;7.77;4.97;;;15.30;47.90;;;;;;6158431;23;20442;-88
2021/11/07 23:49:48;;;;;;;10.17;6.40;;;14.80;46.90;;;;;;6158074;23;20443;-88
2021/11/07 23:55:08;;;;;;;7.77;5.50;;;13.40;50.40;;;;;;6156159;23;20505;-87
2021/11/07 23:57:36;;;;;;;7.80;5.90;;;13.60;51.70;;;;;;6155939;23;20472;-87
